createdAt,value
2019-04-06T09:23:28.930Z,35744.00
2019-04-06T09:24:29.111Z,46176.00
2019-04-06T09:25:29.119Z,46528.00
2019-04-06T09:26:28.891Z,23520.00
2019-04-06T09:27:28.878Z,15056.00
2019-04-06T09:28:28.863Z,16352.00
2019-04-06T09:29:28.860Z,23680.00
2019-04-06T09:30:28.842Z,45568.00
2019-04-06T09:31:28.837Z,48256.00
2019-04-06T09:32:28.934Z,14780.00
2019-04-06T09:33:28.821Z,11972.00
2019-04-06T09:34:31.073Z,10612.00
2019-04-06T09:35:28.786Z,10852.00
2019-04-06T09:36:28.780Z,13300.00
2019-04-06T09:37:28.764Z,23744.00
2019-04-06T09:38:28.753Z,13212.00
2019-04-06T09:39:28.750Z,19360.00
2019-04-06T09:40:28.975Z,16064.00
2019-04-06T09:41:28.719Z,21888.00
2019-04-06T09:42:28.711Z,21600.00
2019-04-06T09:43:28.705Z,17600.00
2019-04-06T09:44:28.717Z,21024.00
2019-04-06T09:45:28.678Z,39584.00
2019-04-06T09:46:28.666Z,19968.00
2019-04-06T09:47:28.985Z,14620.00
2019-04-06T09:48:28.643Z,20192.00
2019-04-06T09:49:28.647Z,20480.00
2019-04-06T09:50:28.830Z,38304.00
2019-04-06T09:51:28.610Z,19584.00
2019-04-06T09:52:28.599Z,20384.00
2019-04-06T09:53:28.860Z,46048.00
2019-04-06T09:54:28.575Z,46080.00
2019-04-06T09:55:28.572Z,51648.00
2019-04-06T09:56:28.551Z,44032.00
2019-04-06T09:57:28.540Z,28288.00
2019-04-06T09:58:28.749Z,42592.00
2019-04-06T09:59:35.234Z,17888.00
2019-04-06T10:00:29.518Z,14852.00
2019-04-06T10:01:38.613Z,17984.00
2019-04-06T10:02:29.517Z,18176.00
2019-04-06T10:03:28.845Z,33600.00
2019-04-06T10:04:28.554Z,20256.00
2019-04-06T10:05:28.617Z,30848.00
2019-04-06T10:06:28.441Z,31360.00
2019-04-06T10:07:28.434Z,25600.00
2019-04-06T10:08:28.419Z,33056.00
2019-04-06T10:09:28.408Z,30560.00
2019-04-06T10:10:28.445Z,17696.00
2019-04-06T10:11:28.385Z,16032.00
2019-04-06T10:12:28.408Z,13988.00
2019-04-06T10:13:28.702Z,13444.00
2019-04-06T10:14:28.363Z,14672.00
2019-04-06T10:15:28.348Z,14292.00
2019-04-06T10:16:28.329Z,16416.00
2019-04-06T10:17:28.320Z,18176.00
2019-04-06T10:18:28.305Z,16928.00
2019-04-06T10:19:28.295Z,20160.00
2019-04-06T10:20:28.525Z,24992.00
2019-04-06T10:21:28.310Z,28096.00
2019-04-06T10:22:28.444Z,24640.00
2019-04-06T10:23:28.247Z,30144.00
2019-04-06T10:24:28.454Z,22976.00
2019-04-06T10:25:28.239Z,30752.00
2019-04-06T10:26:28.305Z,30112.00
2019-04-06T10:27:28.314Z,31680.00
2019-04-06T10:28:28.193Z,24160.00
2019-04-06T10:29:28.230Z,34048.00
2019-04-06T10:30:28.216Z,70720.00
2019-04-06T10:31:28.159Z,70048.00
2019-04-06T10:32:28.148Z,70912.00
2019-04-06T10:33:28.266Z,70912.00
2019-04-06T10:34:28.128Z,70112.00
2019-04-06T10:35:28.150Z,62624.00
2019-04-06T10:36:28.104Z,69184.00
2019-04-06T10:37:28.093Z,72608.00
2019-04-06T10:38:28.351Z,70496.00
2019-04-06T10:39:28.070Z,67296.00
2019-04-06T10:40:28.074Z,65056.00
2019-04-06T10:41:28.165Z,66848.00
2019-04-06T10:42:28.990Z,69312.00
2019-04-06T10:43:28.225Z,70272.00
2019-04-06T10:44:28.097Z,68800.00
2019-04-06T10:45:28.006Z,65408.00
2019-04-06T10:46:28.007Z,64256.00
2019-04-06T10:47:27.983Z,62784.00
2019-04-06T10:48:27.993Z,61472.00
2019-04-06T10:49:27.966Z,60896.00
2019-04-06T10:50:27.953Z,61088.00
2019-04-06T10:51:27.951Z,61440.00
2019-04-06T10:52:27.929Z,61408.00
2019-04-06T10:53:28.229Z,63616.00
2019-04-06T10:54:27.912Z,65184.00
2019-04-06T10:55:28.141Z,64576.00
2019-04-06T10:56:27.894Z,60672.00
2019-04-06T10:57:27.876Z,63040.00
2019-04-06T10:58:27.872Z,61280.00
2019-04-06T10:59:27.858Z,60992.00
2019-04-06T11:00:27.843Z,64000.00
2019-04-06T11:01:27.884Z,64192.00
2019-04-06T11:02:27.821Z,64416.00
2019-04-06T11:03:27.814Z,65024.00
2019-04-06T11:04:27.802Z,64448.00
2019-04-06T11:05:27.790Z,62848.00
2019-04-06T11:06:27.789Z,66144.00
2019-04-06T11:07:27.885Z,64384.00
2019-04-06T11:08:27.966Z,67264.00
2019-04-06T11:09:27.749Z,66336.00
2019-04-06T11:10:27.896Z,52832.00
2019-04-06T11:11:27.736Z,59392.00
2019-04-06T11:12:27.715Z,22240.00
2019-04-06T11:13:27.706Z,59328.00
2019-04-06T11:14:27.804Z,58880.00
2019-04-06T11:15:27.714Z,60160.00
2019-04-06T11:16:27.697Z,22784.00
2019-04-06T11:17:27.664Z,58304.00
2019-04-06T11:18:27.656Z,65760.00
2019-04-06T11:19:28.159Z,32672.00
2019-04-06T11:20:27.770Z,39168.00
2019-04-06T11:21:27.662Z,61664.00
2019-04-06T11:22:27.614Z,63328.00
2019-04-06T11:23:27.597Z,67008.00
2019-04-06T11:24:27.584Z,67456.00
2019-04-06T11:25:27.607Z,67744.00
2019-04-06T11:26:27.581Z,67488.00
2019-04-06T11:27:27.775Z,69984.00
2019-04-06T11:28:27.561Z,69120.00
2019-04-06T11:29:27.532Z,69440.00
2019-04-06T11:30:27.522Z,71936.00
2019-04-06T11:31:27.830Z,32000.00
2019-04-06T11:32:27.509Z,63840.00
2019-04-06T11:33:27.494Z,59968.00
2019-04-06T11:34:27.477Z,59552.00
2019-04-06T11:35:27.467Z,61216.00
2019-04-06T11:36:27.493Z,64032.00
2019-04-06T11:37:27.454Z,68256.00
2019-04-06T11:38:27.685Z,25120.00
2019-04-06T11:39:27.684Z,74336.00
2019-04-06T11:40:27.414Z,74336.00
2019-04-06T11:41:27.672Z,68160.00
2019-04-06T11:42:27.409Z,44896.00
2019-04-06T11:43:27.581Z,74560.00
2019-04-06T11:44:27.370Z,73216.00
2019-04-06T11:45:27.360Z,70688.00
2019-04-06T11:46:27.632Z,71392.00
2019-04-06T11:47:27.378Z,69472.00
2019-04-06T11:48:27.335Z,69632.00
2019-04-06T11:49:27.599Z,68704.00
2019-04-06T11:50:27.319Z,67616.00
2019-04-06T11:51:27.566Z,42464.00
2019-04-06T11:52:27.285Z,28224.00
2019-04-06T11:53:27.308Z,27392.00
2019-04-06T11:54:27.274Z,27552.00
2019-04-06T11:55:27.294Z,26176.00
2019-04-06T11:56:27.241Z,25056.00
2019-04-06T11:57:27.236Z,23648.00
2019-04-06T11:58:27.233Z,30592.00
2019-04-06T11:59:27.210Z,38592.00
2019-04-06T12:00:28.117Z,50944.00
2019-04-06T12:01:27.191Z,55840.00
2019-04-06T12:02:27.178Z,60384.00
2019-04-06T12:03:27.176Z,49344.00
2019-04-06T12:04:27.214Z,60736.00
2019-04-06T12:05:27.238Z,51744.00
2019-04-06T12:06:27.366Z,32992.00
2019-04-06T12:07:27.258Z,26048.00
2019-04-06T12:08:27.120Z,31584.00
2019-04-06T12:09:27.268Z,23520.00
2019-04-06T12:10:27.092Z,48832.00
2019-04-06T12:11:27.079Z,64864.00
2019-04-06T12:12:27.071Z,62400.00
2019-04-06T12:13:27.067Z,61152.00
2019-04-06T12:14:27.099Z,60768.00
2019-04-06T12:15:27.038Z,52608.00
2019-04-06T12:16:27.027Z,20352.00
2019-04-06T12:17:27.017Z,20320.00
2019-04-06T12:18:27.257Z,18656.00
2019-04-06T12:19:26.993Z,20448.00
2019-04-06T12:20:27.161Z,40032.00
2019-04-06T12:21:27.515Z,43328.00
2019-04-06T12:22:27.010Z,26080.00
2019-04-06T12:23:26.978Z,19776.00
2019-04-06T12:24:26.938Z,25088.00
2019-04-06T12:25:27.109Z,15696.00
2019-04-06T12:26:27.170Z,16672.00
2019-04-06T12:27:26.909Z,22272.00
2019-04-06T12:28:26.903Z,57856.00
2019-04-06T12:29:27.000Z,65504.00
2019-04-06T12:30:36.599Z,67904.00
2019-04-06T12:31:27.862Z,57952.00
2019-04-06T12:32:26.852Z,49536.00
2019-04-06T12:33:26.842Z,58816.00
2019-04-06T12:34:27.129Z,60768.00
2019-04-06T12:35:26.820Z,43168.00
2019-04-06T12:36:26.817Z,45344.00
2019-04-06T12:37:26.800Z,42464.00
2019-04-06T12:38:26.788Z,35776.00
2019-04-06T12:39:26.841Z,15232.00
2019-04-06T12:40:26.791Z,57472.00
2019-04-06T12:41:27.043Z,16352.00
2019-04-06T12:42:26.744Z,14092.00
2019-04-06T12:43:26.809Z,15260.00
2019-04-06T12:44:26.773Z,19072.00
2019-04-06T12:45:26.713Z,19104.00
2019-04-06T12:46:26.906Z,23392.00
2019-04-06T12:47:26.740Z,22112.00
2019-04-06T12:48:26.679Z,24704.00
2019-04-06T12:49:26.749Z,22240.00
2019-04-06T12:50:26.660Z,21888.00
2019-04-06T12:51:26.647Z,18144.00
2019-04-06T12:52:26.642Z,20160.00
2019-04-06T12:53:26.626Z,20320.00
2019-04-06T12:54:26.621Z,31776.00
2019-04-06T12:55:26.603Z,29984.00
2019-04-06T12:56:26.692Z,16480.00
2019-04-06T12:57:26.580Z,13708.00
2019-04-06T12:58:26.570Z,14036.00
2019-04-06T12:59:26.729Z,16384.00
2019-04-06T13:00:26.549Z,16672.00
2019-04-06T13:01:26.540Z,17824.00
2019-04-06T13:02:26.916Z,20576.00
2019-04-06T13:03:26.515Z,45664.00
2019-04-06T13:04:26.599Z,59360.00
2019-04-06T13:05:26.493Z,39008.00
2019-04-06T13:06:26.484Z,25824.00
2019-04-06T13:07:26.474Z,23040.00
2019-04-06T13:08:26.459Z,13532.00
2019-04-06T13:09:26.464Z,13076.00
2019-04-06T13:10:26.438Z,15768.00
2019-04-06T13:11:26.427Z,54112.00
2019-04-06T13:12:26.417Z,59200.00
2019-04-06T13:13:26.417Z,54912.00
2019-04-06T13:14:26.422Z,58144.00
2019-04-06T13:15:26.391Z,20160.00
2019-04-06T13:16:26.572Z,25152.00
2019-04-06T13:17:26.361Z,19424.00
2019-04-06T13:18:26.351Z,17504.00
2019-04-06T13:19:26.338Z,16736.00
2019-04-06T13:20:26.347Z,19520.00
2019-04-06T13:21:26.453Z,29952.00
2019-04-06T13:22:26.359Z,15820.00
2019-04-06T13:23:26.330Z,13560.00
2019-04-06T13:24:26.284Z,13176.00
2019-04-06T13:25:26.284Z,13636.00
2019-04-06T13:26:26.445Z,12872.00
2019-04-06T13:27:26.433Z,11864.00
2019-04-06T13:28:26.427Z,11940.00
2019-04-06T13:29:26.229Z,12136.00
2019-04-06T13:30:26.245Z,12876.00
2019-04-06T13:31:26.211Z,14112.00
2019-04-06T13:32:26.209Z,14360.00
2019-04-06T13:33:26.195Z,11736.00
2019-04-06T13:34:26.344Z,9300.00
2019-04-06T13:35:26.720Z,8144.00
2019-04-06T13:36:26.338Z,7520.00
2019-04-06T13:37:26.494Z,6644.00
2019-04-06T13:38:26.130Z,6380.00
2019-04-06T13:39:26.218Z,6364.00
2019-04-06T13:40:26.173Z,6616.00
2019-04-06T13:41:26.098Z,6860.00
2019-04-06T13:42:26.089Z,7132.00
2019-04-06T13:43:26.352Z,7428.00
2019-04-06T13:44:26.065Z,7596.00
2019-04-06T13:45:26.069Z,8312.00
2019-04-06T13:46:26.042Z,8512.00
2019-04-06T13:47:26.032Z,8668.00
2019-04-06T13:48:26.025Z,8612.00
2019-04-06T13:49:26.011Z,7960.00
2019-04-06T13:50:26.377Z,7240.00
2019-04-06T13:51:26.141Z,6708.00
2019-04-06T13:52:25.977Z,6432.00
2019-04-06T13:53:25.968Z,6056.00
2019-04-06T13:54:25.955Z,5776.00
2019-04-06T13:55:26.010Z,5492.00
2019-04-06T13:56:25.933Z,5328.00
2019-04-06T13:57:25.922Z,5396.00
2019-04-06T13:58:25.912Z,5364.00
2019-04-06T13:59:25.917Z,5196.00
2019-04-06T14:00:25.892Z,5152.00
2019-04-06T14:01:26.117Z,5132.00
2019-04-06T14:02:25.918Z,5348.00
2019-04-06T14:03:25.986Z,5500.00
2019-04-06T14:04:25.889Z,5948.00
2019-04-06T14:05:26.046Z,6432.00
2019-04-06T14:06:25.873Z,6664.00
2019-04-06T14:07:25.877Z,7496.00
2019-04-06T14:08:25.799Z,7456.00
2019-04-06T14:09:25.812Z,7352.00
2019-04-06T14:10:25.800Z,7324.00
2019-04-06T14:11:25.778Z,7272.00
2019-04-06T14:12:26.138Z,6488.00
2019-04-06T14:13:25.750Z,6060.00
2019-04-06T14:14:25.823Z,5824.00
2019-04-06T14:15:25.747Z,5552.00
2019-04-06T14:16:25.719Z,5412.00
2019-04-06T14:17:25.777Z,5916.00
2019-04-06T14:18:25.697Z,6800.00
2019-04-06T14:19:26.031Z,7164.00
2019-04-06T14:20:25.670Z,7444.00
2019-04-06T14:21:25.681Z,7396.00
2019-04-06T14:22:25.644Z,7128.00
2019-04-06T14:23:25.631Z,6876.00
2019-04-06T14:24:25.629Z,7272.00
2019-04-06T14:25:25.904Z,7404.00
2019-04-06T14:26:25.607Z,7436.00
2019-04-06T14:27:25.612Z,7592.00
2019-04-06T14:28:25.583Z,7472.00
2019-04-06T14:29:25.608Z,6812.00
2019-04-06T14:30:25.725Z,6432.00
2019-04-06T14:31:29.382Z,6412.00
2019-04-06T14:32:25.530Z,6304.00
2019-04-06T14:33:25.523Z,6184.00
2019-04-06T14:34:25.513Z,6268.00
2019-04-06T14:35:25.744Z,6292.00
2019-04-06T14:36:25.490Z,6340.00
2019-04-06T14:37:25.802Z,6476.00
2019-04-06T14:38:25.474Z,6388.00
2019-04-06T14:39:25.502Z,6104.00
2019-04-06T14:40:25.458Z,5208.00
2019-04-06T14:41:25.426Z,5252.00
2019-04-06T14:42:25.424Z,5156.00
2019-04-06T14:43:25.422Z,5072.00
2019-04-06T14:44:25.421Z,5384.00
2019-04-06T14:45:25.712Z,6276.00
2019-04-06T14:46:25.374Z,7488.00
2019-04-06T14:47:25.370Z,7556.00
2019-04-06T14:48:25.555Z,8272.00
2019-04-06T14:49:31.248Z,8496.00
2019-04-06T14:50:26.377Z,8208.00
2019-04-06T14:51:25.317Z,7560.00
2019-04-06T14:52:25.311Z,6568.00
2019-04-06T14:53:25.290Z,5860.00
2019-04-06T14:54:27.005Z,5444.00
2019-04-06T14:55:25.561Z,5208.00
2019-04-06T14:56:25.444Z,5040.00
2019-04-06T14:57:25.264Z,4908.00
2019-04-06T14:58:25.235Z,4940.00
2019-04-06T14:59:25.899Z,4768.00
2019-04-06T15:00:25.304Z,4620.00
2019-04-06T15:01:37.014Z,4632.00
2019-04-06T15:02:26.200Z,4640.00
2019-04-06T15:03:25.181Z,4552.00
2019-04-06T15:04:25.170Z,4680.00
2019-04-06T15:05:25.164Z,4888.00
2019-04-06T15:06:25.156Z,4872.00
2019-04-06T15:07:25.159Z,4832.00
2019-04-06T15:08:25.124Z,4800.00
2019-04-06T15:09:25.113Z,4852.00
2019-04-06T15:10:25.261Z,5312.00
2019-04-06T15:11:25.125Z,5988.00
2019-04-06T15:12:25.121Z,6544.00
2019-04-06T15:13:25.404Z,7056.00
2019-04-06T15:14:25.105Z,7152.00
2019-04-06T15:15:25.153Z,7096.00
2019-04-06T15:16:25.042Z,7332.00
2019-04-06T15:17:25.144Z,8520.00
2019-04-06T15:18:25.099Z,10096.00
2019-04-06T15:19:25.009Z,6668.00
2019-04-06T15:20:25.018Z,6544.00
2019-04-06T15:21:24.985Z,6232.00
2019-04-06T15:22:25.008Z,5828.00
2019-04-06T15:23:25.375Z,5372.00
2019-04-06T15:24:24.959Z,5108.00
2019-04-06T15:25:24.941Z,4808.00
2019-04-06T15:26:24.940Z,4476.00
2019-04-06T15:27:24.939Z,4212.00
2019-04-06T15:28:25.242Z,4136.00
2019-04-06T15:29:25.267Z,4056.00
2019-04-06T15:30:24.889Z,4172.00
2019-04-06T15:31:24.884Z,4480.00
2019-04-06T15:32:24.872Z,4772.00
2019-04-06T15:33:24.867Z,4708.00
2019-04-06T15:34:24.859Z,4892.00
2019-04-06T15:35:24.832Z,4596.00
2019-04-06T15:36:25.141Z,4304.00
2019-04-06T15:37:24.809Z,4168.00
2019-04-06T15:38:24.798Z,4044.00
2019-04-06T15:39:24.799Z,4044.00
2019-04-06T15:40:25.056Z,4032.00
2019-04-06T15:41:24.776Z,4100.00
2019-04-06T15:42:24.757Z,4164.00
2019-04-06T15:43:24.749Z,4260.00
2019-04-06T15:44:24.731Z,4380.00
2019-04-06T15:45:24.727Z,4308.00
2019-04-06T15:46:24.721Z,4212.00
2019-04-06T15:47:24.700Z,4256.00
2019-04-06T15:48:36.630Z,4336.00
2019-04-06T15:49:25.679Z,4340.00
2019-04-06T15:50:24.998Z,4368.00
2019-04-06T15:51:24.698Z,4300.00
2019-04-06T15:52:25.042Z,4152.00
2019-04-06T15:53:24.636Z,4076.00
2019-04-06T15:54:24.723Z,4180.00
2019-04-06T15:55:24.928Z,4088.00
2019-04-06T15:56:24.602Z,4004.00
2019-04-06T15:57:24.611Z,3968.00
2019-04-06T15:58:24.902Z,3972.00
2019-04-06T15:59:24.571Z,3996.00
2019-04-06T16:00:24.565Z,4112.00
2019-04-06T16:01:24.551Z,4216.00
2019-04-06T16:02:24.545Z,4248.00
2019-04-06T16:03:24.528Z,4324.00
2019-04-06T16:04:24.721Z,4380.00
2019-04-06T16:05:24.503Z,4332.00
2019-04-06T16:06:24.659Z,4276.00
2019-04-06T16:07:31.414Z,4208.00
2019-04-06T16:08:25.473Z,4208.00
2019-04-06T16:09:24.466Z,4192.00
2019-04-06T16:10:24.450Z,4336.00
2019-04-06T16:11:24.440Z,4308.00
2019-04-06T16:12:24.977Z,4076.00
2019-04-06T16:13:24.419Z,3860.00
2019-04-06T16:14:24.810Z,3716.00
2019-04-06T16:15:24.395Z,3596.00
2019-04-06T16:16:24.384Z,3388.00
2019-04-06T16:17:24.391Z,3484.00
2019-04-06T16:18:24.361Z,3628.00
2019-04-06T16:19:24.352Z,3520.00
2019-04-06T16:20:24.338Z,3468.00
2019-04-06T16:21:24.327Z,3488.00
2019-04-06T16:22:24.318Z,3472.00
2019-04-06T16:23:24.329Z,3424.00
2019-04-06T16:24:24.294Z,3388.00
2019-04-06T16:25:24.286Z,3440.00
2019-04-06T16:26:24.512Z,3508.00
2019-04-06T16:27:24.261Z,3444.00
2019-04-06T16:28:24.327Z,3292.00
2019-04-06T16:29:24.250Z,3256.00
2019-04-06T16:30:24.500Z,3224.00
2019-04-06T16:31:24.342Z,3192.00
2019-04-06T16:32:32.942Z,3160.00
2019-04-06T16:33:25.206Z,3112.00
2019-04-06T16:34:24.500Z,3064.00
2019-04-06T16:35:24.181Z,3024.00
2019-04-06T16:36:24.199Z,2984.00
2019-04-06T16:37:24.151Z,2932.00
2019-04-06T16:38:24.182Z,2860.00
2019-04-06T16:39:24.131Z,2776.00
2019-04-06T16:40:24.117Z,2676.00
2019-04-06T16:41:24.111Z,2592.00
2019-04-06T16:42:24.097Z,2516.00
2019-04-06T16:43:24.095Z,2448.00
2019-04-06T16:44:24.074Z,2392.00
2019-04-06T16:45:24.062Z,2340.00
2019-04-06T16:46:24.056Z,2304.00
2019-04-06T16:47:24.070Z,2264.00
2019-04-06T16:48:24.051Z,2232.00
2019-04-06T16:49:24.018Z,2204.00
2019-04-06T16:50:24.043Z,2180.00
2019-04-06T16:51:23.996Z,2156.00
2019-04-06T16:52:24.260Z,2120.00
2019-04-06T16:53:23.981Z,2072.00
2019-04-06T16:54:23.983Z,2016.00
2019-04-06T16:55:23.951Z,1956.00
2019-04-06T16:56:24.351Z,1904.00
2019-04-06T16:57:23.948Z,1872.00
2019-04-06T16:58:23.917Z,1848.00
2019-04-06T16:59:23.915Z,1816.00
2019-04-06T17:00:23.907Z,1784.00
2019-04-06T17:01:23.885Z,1748.00
2019-04-06T17:02:24.902Z,1716.00
2019-04-06T17:03:23.888Z,1692.00
2019-04-06T17:04:23.861Z,1656.00
2019-04-06T17:05:23.838Z,1628.00
2019-04-06T17:06:23.836Z,1596.00
2019-04-06T17:07:23.986Z,1572.00
2019-04-06T17:08:23.804Z,1540.00
2019-04-06T17:09:23.894Z,1512.00
2019-04-06T17:10:23.810Z,1488.00
2019-04-06T17:11:24.234Z,1460.00
2019-04-06T17:12:23.759Z,1432.00
2019-04-06T17:13:23.870Z,1404.00
2019-04-06T17:14:23.848Z,1376.00
2019-04-06T17:15:24.064Z,1344.00
2019-04-06T17:16:23.717Z,1308.00
2019-04-06T17:17:23.709Z,1276.00
2019-04-06T17:18:23.713Z,1248.00
2019-04-06T17:19:23.689Z,1216.00
2019-04-06T17:20:23.909Z,1184.00
2019-04-06T17:21:24.018Z,1160.00
2019-04-06T17:22:23.651Z,1132.00
2019-04-06T17:23:23.787Z,1108.00
2019-04-06T17:24:23.634Z,1084.00
2019-04-06T17:25:24.487Z,1056.00
2019-04-06T17:26:25.467Z,1036.00
2019-04-06T17:27:23.620Z,1016.00
2019-04-06T17:28:23.624Z,992.00
2019-04-06T17:29:23.582Z,972.00
2019-04-06T17:30:23.569Z,956.00
2019-04-06T17:31:23.560Z,932.00
2019-04-06T17:32:34.785Z,908.00
2019-04-06T17:33:24.525Z,884.00
2019-04-06T17:34:23.587Z,860.00
2019-04-06T17:35:23.514Z,832.00
2019-04-06T17:36:23.555Z,804.00
2019-04-06T17:37:23.486Z,776.00
2019-04-06T17:38:24.303Z,744.00
2019-04-06T17:39:23.459Z,716.00
2019-04-06T17:40:23.457Z,688.00
2019-04-06T17:41:23.840Z,660.00
2019-04-06T17:42:23.501Z,632.00
2019-04-06T17:43:23.671Z,604.00
2019-04-06T17:44:23.403Z,576.00
2019-04-06T17:45:23.404Z,548.00
2019-04-06T17:46:23.396Z,520.00
2019-04-06T17:47:23.368Z,488.00
2019-04-06T17:48:23.946Z,464.00
2019-04-06T17:49:24.540Z,444.00
2019-04-06T17:50:23.345Z,420.00
2019-04-06T17:51:23.461Z,400.00
2019-04-06T17:52:23.347Z,380.00
2019-04-06T17:53:23.428Z,360.00
2019-04-06T17:54:23.292Z,344.00
2019-04-06T17:55:23.290Z,324.00
2019-04-06T17:56:23.268Z,308.00
2019-04-06T17:57:23.415Z,288.00
2019-04-06T17:58:23.260Z,272.00
2019-04-06T17:59:23.237Z,256.00
2019-04-06T18:00:23.238Z,240.00
2019-04-06T18:01:23.214Z,224.00
2019-04-06T18:02:23.211Z,208.00
2019-04-06T18:03:23.615Z,192.00
2019-04-06T18:04:23.181Z,180.00
2019-04-06T18:05:23.185Z,168.00
2019-04-06T18:06:23.157Z,156.00
2019-04-06T18:07:23.956Z,140.00
2019-04-06T18:08:23.132Z,128.00
2019-04-06T18:09:23.414Z,120.00
2019-04-06T18:10:23.125Z,108.00
2019-04-06T18:11:23.111Z,100.00
2019-04-06T18:12:23.092Z,88.00
2019-04-06T18:13:23.083Z,80.00
2019-04-06T18:14:23.563Z,72.00
2019-04-06T18:15:23.061Z,64.00
2019-04-06T18:16:23.280Z,60.00
2019-04-06T18:17:23.168Z,52.00
2019-04-06T18:18:23.024Z,44.00
2019-04-06T18:19:23.013Z,40.00
2019-04-06T18:20:23.249Z,36.00
2019-04-06T18:21:23.521Z,32.00
2019-04-06T18:22:23.079Z,28.00
2019-04-06T18:23:23.327Z,24.00
2019-04-06T18:24:22.956Z,24.00
2019-04-06T18:25:23.420Z,16.00
2019-04-06T18:26:22.950Z,16.00
2019-04-06T18:27:22.924Z,16.00
2019-04-06T18:28:22.912Z,12.00
2019-04-06T18:29:22.902Z,8.00
2019-04-06T18:30:22.891Z,8.00
2019-04-06T18:31:22.888Z,4.00
2019-04-06T18:32:25.316Z,4.00
2019-04-06T18:33:22.854Z,4.00
2019-04-06T18:34:22.937Z,4.00
2019-04-06T18:35:22.832Z,0.00
2019-04-06T18:36:23.171Z,4.00
2019-04-06T18:37:22.813Z,4.00
2019-04-06T18:38:23.223Z,0.00
2019-04-06T18:39:22.789Z,0.00
2019-04-06T18:40:22.785Z,0.00
2019-04-06T18:41:22.776Z,0.00
2019-04-06T18:42:23.002Z,0.00
2019-04-06T18:43:23.265Z,0.00
2019-04-06T18:44:23.067Z,0.00
2019-04-06T18:45:23.170Z,0.00
2019-04-06T18:46:22.720Z,0.00
2019-04-06T18:47:23.153Z,0.00
2019-04-06T18:48:22.687Z,0.00
2019-04-06T18:49:22.819Z,0.00
2019-04-06T18:50:33.318Z,0.00
2019-04-06T18:51:23.665Z,0.00
2019-04-06T18:52:22.641Z,0.00
2019-04-06T18:53:22.736Z,0.00
2019-04-06T18:54:22.624Z,0.00
2019-04-06T18:55:22.608Z,0.00
2019-04-06T18:56:22.612Z,0.00
2019-04-06T18:57:22.587Z,0.00
2019-04-06T18:58:22.992Z,0.00
2019-04-06T18:59:23.186Z,0.00
2019-04-06T19:00:22.623Z,0.00
2019-04-06T19:01:22.551Z,0.00
2019-04-06T19:02:22.620Z,0.00
2019-04-06T19:03:22.521Z,0.00
2019-04-06T19:04:22.672Z,0.00
2019-04-06T19:05:22.904Z,0.00
2019-04-06T19:06:22.801Z,0.00
2019-04-06T19:07:22.489Z,0.00
2019-04-06T19:08:23.281Z,0.00
2019-04-06T19:09:24.661Z,0.00
2019-04-06T19:10:22.446Z,0.00
2019-04-06T19:11:22.475Z,0.00
2019-04-06T19:12:22.440Z,0.00
2019-04-06T19:13:23.206Z,0.00
2019-04-06T19:14:22.533Z,0.00
2019-04-06T19:15:22.877Z,0.00
2019-04-06T19:16:22.841Z,0.00
2019-04-06T19:17:22.427Z,0.00
2019-04-06T19:18:22.793Z,0.00
2019-04-06T19:19:23.165Z,0.00
2019-04-06T19:20:22.542Z,0.00
2019-04-06T19:21:22.341Z,0.00
2019-04-06T19:22:22.812Z,0.00
2019-04-06T19:23:22.296Z,0.00
2019-04-06T19:24:22.290Z,0.00
2019-04-06T19:25:22.379Z,0.00
2019-04-06T19:26:22.272Z,0.00
2019-04-06T19:27:22.804Z,0.00
2019-04-06T19:28:22.257Z,0.00
2019-04-06T19:29:22.626Z,0.00
2019-04-06T19:30:22.221Z,0.00
2019-04-06T19:31:22.322Z,0.00
2019-04-06T19:32:22.457Z,0.00
2019-04-06T19:33:25.487Z,0.00
2019-04-06T19:34:22.276Z,0.00
2019-04-06T19:35:22.393Z,0.00
2019-04-06T19:36:22.992Z,0.00
2019-04-06T19:37:22.576Z,0.00
2019-04-06T19:38:22.392Z,0.00
2019-04-06T19:39:22.180Z,0.00
2019-04-06T19:40:22.629Z,0.00
2019-04-06T19:41:22.447Z,0.00
2019-04-06T19:42:22.679Z,0.00
2019-04-06T19:43:22.075Z,0.00
2019-04-06T19:44:22.063Z,0.00
2019-04-06T19:45:22.329Z,0.00
2019-04-06T19:46:22.063Z,0.00
2019-04-06T19:47:22.253Z,0.00
2019-04-06T19:48:22.030Z,0.00
2019-04-06T19:49:22.029Z,0.00
2019-04-06T19:50:22.209Z,0.00
2019-04-06T19:51:22.002Z,0.00
2019-04-06T19:52:21.979Z,0.00
2019-04-06T19:53:22.416Z,0.00
2019-04-06T19:54:22.126Z,0.00
2019-04-06T19:55:22.879Z,0.00
2019-04-06T19:56:22.254Z,0.00
2019-04-06T19:57:21.946Z,0.00
2019-04-06T19:58:21.922Z,0.00
2019-04-06T19:59:21.895Z,0.00
2019-04-06T20:00:22.364Z,0.00
2019-04-06T20:01:21.922Z,0.00
2019-04-06T20:02:22.069Z,0.00
2019-04-06T20:03:29.196Z,0.00
2019-04-06T20:04:22.839Z,0.00
2019-04-06T20:05:21.838Z,0.00
2019-04-06T20:06:21.823Z,0.00
2019-04-06T20:07:21.834Z,0.00
2019-04-06T20:08:21.826Z,0.00
2019-04-06T20:09:21.784Z,0.00
2019-04-06T20:10:21.823Z,0.00
2019-04-06T20:11:22.017Z,0.00
2019-04-06T20:12:21.748Z,0.00
2019-04-06T20:13:22.273Z,0.00
2019-04-06T20:14:21.946Z,0.00
2019-04-06T20:15:22.154Z,0.00
2019-04-06T20:16:21.730Z,0.00
2019-04-06T20:17:22.446Z,0.00
2019-04-06T20:18:21.696Z,0.00
2019-04-06T20:19:22.559Z,0.00
2019-04-06T20:20:22.242Z,0.00
2019-04-06T20:21:21.739Z,0.00
2019-04-06T20:22:21.640Z,0.00
2019-04-06T20:23:22.092Z,0.00
2019-04-06T20:24:21.778Z,0.00
2019-04-06T20:25:21.606Z,0.00
2019-04-06T20:26:22.243Z,0.00
2019-04-06T20:27:21.594Z,0.00
2019-04-06T20:28:22.169Z,0.00
2019-04-06T20:29:22.132Z,0.00
2019-04-06T20:30:21.746Z,0.00
2019-04-06T20:31:21.540Z,0.00
2019-04-06T20:32:21.530Z,0.00
2019-04-06T20:33:21.545Z,0.00
2019-04-06T20:34:21.881Z,0.00
2019-04-06T20:35:21.513Z,0.00
2019-04-06T20:36:21.482Z,0.00
2019-04-06T20:37:21.599Z,0.00
2019-04-06T20:38:21.880Z,0.00
2019-04-06T20:39:22.010Z,0.00
2019-04-06T20:40:21.437Z,0.00
2019-04-06T20:41:21.470Z,0.00
2019-04-06T20:42:21.420Z,0.00
2019-04-06T20:43:21.402Z,0.00
2019-04-06T20:44:21.399Z,0.00
2019-04-06T20:45:21.385Z,0.00
2019-04-06T20:46:21.367Z,0.00
2019-04-06T20:47:21.611Z,0.00
2019-04-06T20:48:21.501Z,0.00
2019-04-06T20:49:21.342Z,0.00
2019-04-06T20:50:21.368Z,0.00
2019-04-06T20:51:21.486Z,0.00
2019-04-06T20:52:21.758Z,0.00
2019-04-06T20:53:21.290Z,0.00
2019-04-06T20:54:21.287Z,0.00
2019-04-06T20:55:21.325Z,0.00
2019-04-06T20:56:21.707Z,0.00
2019-04-06T20:57:21.247Z,0.00
2019-04-06T20:58:21.241Z,0.00
2019-04-06T20:59:21.235Z,0.00
2019-04-06T21:00:21.211Z,0.00
2019-04-06T21:01:21.198Z,0.00
2019-04-06T21:02:21.596Z,0.00
2019-04-06T21:03:21.187Z,0.00
2019-04-06T21:04:21.213Z,0.00
2019-04-06T21:05:21.154Z,0.00
2019-04-06T21:06:21.681Z,0.00
2019-04-06T21:07:21.610Z,0.00
2019-04-06T21:08:21.126Z,0.00
2019-04-06T21:09:21.220Z,0.00
2019-04-06T21:10:21.340Z,0.00
2019-04-06T21:11:21.103Z,0.00
2019-04-06T21:12:21.077Z,0.00
2019-04-06T21:13:21.273Z,0.00
2019-04-06T21:14:21.563Z,0.00
2019-04-06T21:15:21.483Z,0.00
2019-04-06T21:16:21.038Z,0.00
2019-04-06T21:17:21.021Z,0.00
2019-04-06T21:18:21.040Z,0.00
2019-04-06T21:19:21.044Z,0.00
2019-04-06T21:20:21.003Z,0.00
2019-04-06T21:21:21.053Z,0.00
2019-04-06T21:22:20.965Z,0.00
2019-04-06T21:23:20.954Z,0.00
2019-04-06T21:24:20.940Z,0.00
2019-04-06T21:25:21.132Z,0.00
2019-04-06T21:26:21.500Z,0.00
2019-04-06T21:27:20.912Z,0.00
2019-04-06T21:28:20.939Z,0.00
2019-04-06T21:29:21.739Z,0.00
2019-04-06T21:30:21.387Z,0.00
2019-04-06T21:31:20.862Z,0.00
2019-04-06T21:32:20.854Z,0.00
2019-04-06T21:33:20.851Z,0.00
2019-04-06T21:34:21.012Z,0.00
2019-04-06T21:35:21.438Z,0.00
2019-04-06T21:36:20.809Z,0.00
2019-04-06T21:37:21.147Z,0.00
2019-04-06T21:38:20.803Z,0.00
2019-04-06T21:39:21.296Z,0.00
2019-04-06T21:40:21.446Z,0.00
2019-04-06T21:41:20.800Z,0.00